createdAt,value
2022-10-14T11:16:44.000Z,18.742981
2022-10-14T11:17:04.000Z,18.753052
2022-10-14T11:17:29.000Z,18.783264
2022-10-14T11:17:49.000Z,18.823547
2022-10-14T11:18:09.000Z,18.833618
2022-10-14T11:18:44.000Z,18.843689
2022-10-14T11:19:22.000Z,18.914185
2022-10-14T11:19:58.000Z,18.914185
2022-10-14T11:20:18.000Z,18.964539
2022-10-14T11:20:39.000Z,18.994751
2022-10-14T11:20:59.000Z,19.014893
2022-10-14T11:21:19.000Z,19.014893
2022-10-14T11:21:39.000Z,18.994751
2022-10-14T11:22:00.000Z,19.085388
2022-10-14T11:22:20.000Z,19.165955
2022-10-14T11:22:40.000Z,19.226379
2022-10-14T11:23:00.000Z,19.246521
2022-10-14T11:23:21.000Z,19.266663
2022-10-14T11:23:41.000Z,19.276733
2022-10-14T11:24:01.000Z,19.236450
2022-10-14T11:24:21.000Z,19.206238
2022-10-14T11:24:42.000Z,19.206238
2022-10-14T11:25:02.000Z,19.196167
2022-10-14T11:25:22.000Z,19.165955
2022-10-14T11:25:42.000Z,19.165955
2022-10-14T11:26:03.000Z,19.145813
2022-10-14T11:26:23.000Z,19.145813
2022-10-14T11:26:44.000Z,19.125671
2022-10-14T11:27:04.000Z,19.115601
2022-10-14T11:27:25.000Z,19.085388
2022-10-14T11:27:53.000Z,19.085388
2022-10-14T11:28:13.000Z,19.065247
2022-10-14T11:28:33.000Z,19.085388
2022-10-14T11:28:53.000Z,19.085388
2022-10-14T11:29:14.000Z,19.115601
2022-10-14T11:29:34.000Z,19.095459
2022-10-14T11:29:54.000Z,19.065247
2022-10-14T11:30:14.000Z,18.994751
2022-10-14T11:30:35.000Z,18.944397
2022-10-14T11:30:55.000Z,18.934326
2022-10-14T11:31:15.000Z,18.904114
2022-10-14T11:31:36.000Z,18.894043
2022-10-14T11:31:56.000Z,18.873901
2022-10-14T11:32:16.000Z,18.863831
2022-10-14T11:32:36.000Z,18.843689
2022-10-14T11:32:57.000Z,18.833618
2022-10-14T11:33:17.000Z,18.793335
2022-10-14T11:33:37.000Z,18.763123
2022-10-14T11:33:57.000Z,18.753052
2022-10-14T11:34:18.000Z,18.753052
2022-10-14T11:34:38.000Z,18.753052
2022-10-14T11:34:58.000Z,18.763123
2022-10-14T12:10:31.000Z,18.189087
2022-10-14T12:10:51.000Z,18.209229
2022-10-14T12:11:11.000Z,18.249512
2022-10-14T12:11:31.000Z,18.289795
2022-10-14T12:11:52.000Z,18.289795
2022-10-14T12:12:12.000Z,18.309937
2022-10-14T12:12:32.000Z,18.289795
2022-10-14T12:12:52.000Z,18.289795
2022-10-14T12:13:13.000Z,18.309937
2022-10-14T12:13:33.000Z,18.309937
2022-10-14T12:13:53.000Z,18.320007
2022-10-14T12:14:14.000Z,18.309937
2022-10-14T12:14:34.000Z,18.320007
2022-10-14T12:14:54.000Z,18.320007
2022-10-14T12:15:14.000Z,18.340149
2022-10-14T12:15:35.000Z,18.320007
2022-10-14T12:15:55.000Z,18.249512
2022-10-14T12:16:15.000Z,18.209229
2022-10-14T12:16:35.000Z,18.229370
2022-10-14T12:16:56.000Z,18.259583
2022-10-14T12:17:16.000Z,18.289795
2022-10-14T12:17:37.000Z,18.320007
2022-10-14T12:17:57.000Z,18.350220
2022-10-14T12:18:17.000Z,18.380432
2022-10-14T12:18:37.000Z,18.390503
2022-10-14T12:18:58.000Z,18.390503
2022-10-14T12:19:18.000Z,18.390503
2022-10-14T12:19:38.000Z,18.390503
2022-10-14T12:19:58.000Z,18.380432
2022-10-14T12:20:19.000Z,18.350220
2022-10-14T12:20:39.000Z,18.289795
2022-10-14T12:20:59.000Z,18.279724
2022-10-14T12:21:20.000Z,18.259583
2022-10-14T12:21:40.000Z,18.259583
2022-10-14T12:22:00.000Z,18.229370
2022-10-14T12:22:20.000Z,18.199158
2022-10-14T12:22:41.000Z,18.189087
2022-10-14T12:23:01.000Z,18.189087
2022-10-14T12:23:21.000Z,18.138733
2022-10-14T12:23:42.000Z,18.138733
2022-10-14T12:24:02.000Z,18.158875
2022-10-14T12:24:22.000Z,18.138733
2022-10-14T12:24:43.000Z,18.128662
2022-10-14T12:25:03.000Z,18.098450
2022-10-14T12:25:23.000Z,18.088379
2022-10-14T12:25:43.000Z,18.088379
2022-10-14T12:26:04.000Z,18.098450
2022-10-14T12:26:24.000Z,18.108521
2022-10-14T12:26:44.000Z,18.098450
2022-10-14T12:27:05.000Z,18.098450
2022-10-14T12:27:25.000Z,18.108521
2022-10-14T12:27:45.000Z,18.158875
2022-10-14T12:28:05.000Z,18.168945
2022-10-14T12:28:26.000Z,18.199158
2022-10-14T12:28:46.000Z,18.209229
2022-10-14T12:29:06.000Z,18.229370
2022-10-14T12:29:26.000Z,18.249512
2022-10-14T12:29:47.000Z,18.249512
2022-10-14T12:30:07.000Z,18.229370
2022-10-14T12:30:27.000Z,18.249512
2022-10-14T12:30:47.000Z,18.229370
2022-10-14T12:31:08.000Z,18.229370
2022-10-14T12:31:28.000Z,18.259583
2022-10-14T12:31:48.000Z,18.289795
2022-10-14T12:32:09.000Z,18.289795
2022-10-14T12:32:29.000Z,18.309937
2022-10-14T12:32:49.000Z,18.320007
2022-10-14T12:33:10.000Z,18.340149
2022-10-14T12:33:30.000Z,18.350220
2022-10-14T12:33:50.000Z,18.360291
2022-10-14T12:34:11.000Z,18.360291
2022-10-14T12:34:31.000Z,18.360291
2022-10-14T12:34:51.000Z,18.380432
2022-10-14T12:35:11.000Z,18.390503
2022-10-14T12:35:32.000Z,18.410645
2022-10-14T12:35:52.000Z,18.390503
2022-10-14T12:36:12.000Z,18.410645
2022-10-14T12:36:33.000Z,18.410645
2022-10-14T12:36:53.000Z,18.420715
2022-10-14T12:37:13.000Z,18.410645
2022-10-14T12:37:34.000Z,18.410645
2022-10-14T12:37:54.000Z,18.410645
2022-10-14T12:38:14.000Z,18.440857
2022-10-14T12:38:34.000Z,18.440857
2022-10-14T12:38:55.000Z,18.440857
2022-10-14T12:39:15.000Z,18.440857
2022-10-14T12:39:35.000Z,18.460999
2022-10-14T12:39:56.000Z,18.440857
2022-10-14T12:40:16.000Z,18.460999
2022-10-14T12:40:36.000Z,18.541565
2022-10-14T12:40:36.000Z,18.491211
2022-10-14T12:41:54.000Z,18.541565
2022-10-14T12:42:14.000Z,18.571777
